Time;durP1;ratioP1;P1;durP2;ratioP2;P2;SDS_P1;SDS_P2;PMS_P1;PMS_P2;Temp;Humidity;BMP_temperature;BMP_pressure;BME280_temperature;BME280_humidity;BME280_pressure;Samples;Min_cycle;Max_cycle;Signal;HPM_P1;HPM_P2
2021/03/05 00:01:04;;;;;;;28.08;13.25;;;;;;;2.99;95.52;101052.00;5006310;28;20501;-52
2021/03/05 00:03:31;;;;;;;28.63;14.27;;;;;;;3.09;93.86;101055.97;5010159;28;20054;-49
2021/03/05 00:05:57;;;;;;;24.67;12.73;;;;;;;3.02;94.31;101055.59;5010369;28;20049;-48
2021/03/05 00:08:24;;;;;;;26.35;13.43;;;;;;;3.11;93.50;101055.28;5009842;28;20559;-58
2021/03/05 00:10:51;;;;;;;27.80;14.25;;;;;;;2.87;94.07;101057.19;5012128;28;20050;-51
2021/03/05 00:13:21;;;;;;;27.17;12.65;;;;;;;2.97;93.53;101066.22;5009402;28;20137;-55
2021/03/05 00:15:48;;;;;;;27.50;11.25;;;;;;;3.01;93.56;101070.69;5011827;28;20686;-46
2021/03/05 00:18:16;;;;;;;25.52;12.00;;;;;;;3.05;93.47;101072.59;5011915;28;20566;-53
2021/03/05 00:20:46;;;;;;;25.15;12.10;;;;;;;2.91;92.92;101076.84;5010877;28;20054;-56
2021/03/05 00:23:13;;;;;;;32.15;12.80;;;;;;;2.86;92.90;101083.22;5009325;28;20766;-52
2021/03/05 00:25:40;;;;;;;27.65;12.40;;;;;;;2.78;95.25;101080.25;5011087;28;20045;-56
2021/03/05 00:28:08;;;;;;;21.33;9.98;;;;;;;2.95;93.24;101077.88;5010739;28;20083;-52
2021/03/05 00:30:35;;;;;;;27.10;11.95;;;;;;;3.21;91.59;101087.09;5009739;28;20057;-54
2021/03/05 00:33:03;;;;;;;22.77;11.38;;;;;;;2.84;93.06;101082.28;5011387;28;20045;-50
2021/03/05 00:35:49;;;;;;;22.88;10.90;;;;;;;2.83;91.96;101092.31;5011684;28;20054;-63
2021/03/05 00:38:16;;;;;;;22.17;10.80;;;;;;;2.79;92.21;101092.09;5016360;28;20065;-55
2021/03/05 00:40:43;;;;;;;18.35;9.23;;;;;;;2.66;92.02;101092.09;5010773;28;20417;-58
2021/03/05 00:43:10;;;;;;;21.95;10.95;;;;;;;2.72;93.02;101100.06;5009969;28;20049;-49
2021/03/05 00:45:36;;;;;;;15.27;9.00;;;;;;;2.92;91.00;101103.88;5010398;28;20050;-48
2021/03/05 00:48:03;;;;;;;21.92;9.73;;;;;;;2.92;91.36;101096.28;5012376;28;20060;-54
2021/03/05 00:50:30;;;;;;;24.20;10.55;;;;;;;2.88;90.91;101106.97;5009058;28;20808;-51
2021/03/05 00:52:56;;;;;;;25.55;10.95;;;;;;;2.75;91.03;101106.97;5010700;28;20053;-56
2021/03/05 00:55:23;;;;;;;17.27;9.07;;;;;;;2.83;91.10;101100.75;5008757;28;20050;-52
2021/03/05 00:57:50;;;;;;;17.27;8.98;;;;;;;2.81;90.63;101105.69;5011058;28;20141;-56
2021/03/05 01:00:17;;;;;;;21.80;10.32;;;;;;;2.95;90.29;101106.56;5008721;28;20409;-51
2021/03/05 01:02:45;;;;;;;22.50;10.43;;;;;;;2.76;91.60;101113.78;5010315;28;20072;-54
2021/03/05 01:05:12;;;;;;;20.27;10.38;;;;;;;2.70;91.75;101109.22;5009297;28;20806;-53
2021/03/05 01:07:38;;;;;;;19.70;10.52;;;;;;;2.51;92.96;101108.81;5009597;28;20090;-52
2021/03/05 01:10:07;;;;;;;24.45;11.63;;;;;;;2.74;92.48;101116.22;5007231;28;20056;-47
2021/03/05 01:12:34;;;;;;;25.55;10.10;;;;;;;2.74;91.90;101111.16;5012184;28;20049;-52
2021/03/05 01:15:03;;;;;;;25.10;11.70;;;;;;;2.62;92.87;101112.03;5010779;28;20053;-54
2021/03/05 01:17:30;;;;;;;25.75;12.02;;;;;;;3.01;91.03;101108.63;5007599;28;20050;-52
2021/03/05 01:19:56;;;;;;;31.38;13.65;;;;;;;2.44;92.56;101116.78;5009849;28;20525;-49
2021/03/05 01:22:23;;;;;;;25.63;14.23;;;;;;;2.66;92.09;101117.38;5008409;28;20098;-60
2021/03/05 01:24:50;;;;;;;21.60;13.13;;;;;;;2.48;92.58;101121.25;5010933;28;20049;-56
2021/03/05 01:27:17;;;;;;;25.25;14.02;;;;;;;2.43;93.72;101110.84;5008454;28;20516;-54
2021/03/05 01:29:43;;;;;;;30.23;15.63;;;;;;;2.37;92.70;101122.22;5009592;28;20064;-54
2021/03/05 01:32:10;;;;;;;24.65;15.05;;;;;;;2.49;92.56;101123.88;5008837;28;20045;-50
2021/03/05 01:34:37;;;;;;;28.83;15.80;;;;;;;2.46;93.79;101122.81;5009404;28;20086;-53
2021/03/05 01:37:03;;;;;;;27.67;15.43;;;;;;;2.58;92.61;101121.06;5011456;28;20045;-54
2021/03/05 01:39:30;;;;;;;29.85;15.75;;;;;;;2.29;92.88;101132.69;5012485;28;20050;-55
2021/03/05 01:41:56;;;;;;;30.27;16.25;;;;;;;2.60;90.86;101131.28;5012778;28;20038;-58
2021/03/05 01:44:24;;;;;;;28.35;15.45;;;;;;;2.39;91.42;101135.81;5007670;28;20049;-53
2021/03/05 01:46:50;;;;;;;29.25;16.92;;;;;;;2.29;92.24;101132.69;5010176;28;20494;-57
2021/03/05 01:49:17;;;;;;;28.13;16.10;;;;;;;2.41;90.66;101142.75;5007841;28;20045;-59
2021/03/05 01:51:44;;;;;;;26.50;15.68;;;;;;;2.00;92.57;101137.47;5009494;28;20092;-56
2021/03/05 01:54:10;;;;;;;29.42;16.25;;;;;;;2.39;91.96;101148.44;5008073;28;20057;-52
2021/03/05 01:56:45;;;;;;;25.70;15.60;;;;;;;2.14;92.03;101146.84;5008773;28;20046;-49
2021/03/05 01:59:15;;;;;;;27.98;16.08;;;;;;;2.18;92.06;101146.28;5010921;28;20041;-47
2021/03/05 02:01:42;;;;;;;27.60;15.93;;;;;;;2.33;91.16;101151.47;5015211;28;20421;-54
2021/03/05 02:04:12;;;;;;;29.40;16.58;;;;;;;2.18;91.48;101155.50;5008766;28;20043;-55
2021/03/05 02:06:59;;;;;;;30.98;16.73;;;;;;;1.84;92.05;101150.69;5009465;28;20075;-58
2021/03/05 02:09:26;;;;;;;29.40;16.15;;;;;;;1.75;93.75;101157.66;5007765;28;20050;-58
2021/03/05 02:11:53;;;;;;;33.28;18.83;;;;;;;1.55;93.71;101161.34;5010032;28;20053;-54
2021/03/05 02:14:19;;;;;;;29.23;17.65;;;;;;;1.34;94.41;101167.41;5007802;28;20050;-47
2021/03/05 02:17:05;;;;;;;35.20;18.52;;;;;;;1.19;95.41;101163.03;5012834;28;20058;-49
2021/03/05 02:20:03;;;;;;;34.05;17.38;;;;;;;1.42;94.52;101166.28;5010580;28;20049;-58
2021/03/05 02:22:52;;;;;;;34.65;18.90;;;;;;;1.30;95.15;101162.94;5010302;28;20056;-51
2021/03/05 02:25:44;;;;;;;35.42;18.33;;;;;;;1.12;95.01;101167.56;5010159;28;20065;-55
2021/03/05 02:28:48;;;;;;;35.22;18.80;;;;;;;1.27;94.67;101177.06;5009796;28;20112;-49
2021/03/05 02:31:27;;;;;;;37.88;18.05;;;;;;;1.20;93.87;101171.47;5013893;28;20405;-56
2021/03/05 02:34:20;;;;;;;39.42;19.73;;;;;;;0.99;95.34;101173.38;5013943;28;20118;-52
2021/03/05 02:36:55;;;;;;;36.53;17.50;;;;;;;1.24;94.05;101186.06;5013116;28;20045;-50
2021/03/05 02:39:25;;;;;;;38.60;18.40;;;;;;;0.99;94.40;101181.81;5016090;28;20391;-53
2021/03/05 02:41:54;;;;;;;44.90;19.52;;;;;;;0.72;94.98;101193.28;5013998;28;20290;-52
2021/03/05 02:44:27;;;;;;;37.50;17.35;;;;;;;0.72;95.79;101194.94;5011442;28;20046;-47
2021/03/05 02:47:06;;;;;;;37.30;15.90;;;;;;;0.60;96.26;101199.06;5006485;28;20099;-54
2021/03/05 02:49:36;;;;;;;32.25;16.73;;;;;;;0.66;95.87;101195.38;5023199;28;20453;-47
2021/03/05 02:52:16;;;;;;;38.13;16.00;;;;;;;0.75;94.96;101202.72;5014847;28;20053;-59
2021/03/05 02:54:45;;;;;;;37.15;16.17;;;;;;;0.33;96.69;101208.00;5015362;28;20120;-52
2021/03/05 02:57:16;;;;;;;32.72;15.27;;;;;;;0.41;96.26;101212.81;5011499;28;20056;-51
2021/03/05 02:59:45;;;;;;;37.70;16.42;;;;;;;0.43;96.74;101215.47;5012792;28;20050;-51
2021/03/05 03:02:12;;;;;;;46.72;15.70;;;;;;;0.70;95.32;101221.69;4997774;28;20116;-50
2021/03/05 03:04:42;;;;;;;36.80;15.63;;;;;;;0.52;95.96;101222.84;5012132;28;20073;-48
2021/03/05 03:07:11;;;;;;;36.42;15.88;;;;;;;0.35;95.81;101224.97;5011800;28;20053;-53
2021/03/05 03:09:40;;;;;;;37.92;15.40;;;;;;;0.24;96.87;101230.84;5011642;28;20097;-49
2021/03/05 03:12:11;;;;;;;35.83;15.35;;;;;;;-0.02;97.20;101228.88;5015303;28;20103;-52
2021/03/05 03:14:42;;;;;;;35.65;15.18;;;;;;;0.24;97.70;101240.94;5011881;28;20054;-53
2021/03/05 03:17:11;;;;;;;39.78;15.00;;;;;;;0.21;96.50;101244.06;5011907;28;20048;-54
2021/03/05 03:19:39;;;;;;;36.95;14.98;;;;;;;0.03;96.88;101246.84;5011788;28;20185;-56
2021/03/05 03:22:06;;;;;;;41.63;15.05;;;;;;;0.00;97.35;101244.97;5012453;28;20054;-54
2021/03/05 03:24:33;;;;;;;37.70;15.70;;;;;;;0.05;97.82;101246.22;5011145;28;20057;-55
2021/03/05 03:27:00;;;;;;;39.92;17.00;;;;;;;-0.34;99.01;101246.50;5012789;28;20053;-56
2021/03/05 03:29:27;;;;;;;38.70;16.00;;;;;;;-0.28;99.49;101257.03;5010628;28;20128;-52
2021/03/05 03:31:55;;;;;;;42.13;15.95;;;;;;;-0.41;100.00;101274.47;5013848;28;20045;-53
2021/03/05 03:34:22;;;;;;;39.05;14.82;;;;;;;-0.09;99.45;101277.00;5010629;28;20145;-52
2021/03/05 03:36:51;;;;;;;36.30;13.90;;;;;;;-0.23;99.08;101267.47;5016250;28;20046;-50
2021/03/05 03:39:17;;;;;;;41.35;15.27;;;;;;;-0.58;100.00;101281.56;5015537;28;20049;-49
2021/03/05 03:41:44;;;;;;;43.70;15.75;;;;;;;-0.54;100.00;101277.66;5016005;28;20054;-52
2021/03/05 03:44:12;;;;;;;40.90;14.88;;;;;;;-0.82;100.00;101279.63;5011634;28;20057;-53
2021/03/05 03:46:49;;;;;;;47.83;16.38;;;;;;;-0.84;100.00;101284.50;5011475;28;20079;-52
2021/03/05 03:49:32;;;;;;;39.90;14.85;;;;;;;-0.64;100.00;101292.78;5012883;28;20056;-56
2021/03/05 03:52:09;;;;;;;39.83;14.18;;;;;;;-0.68;100.00;101298.31;5012439;28;20052;-55
2021/03/05 03:54:37;;;;;;;41.90;14.18;;;;;;;-0.90;100.00;101300.72;5011384;28;20077;-53
2021/03/05 03:57:08;;;;;;;38.13;13.27;;;;;;;-0.95;100.00;101299.47;5013681;28;20041;-54
2021/03/05 03:59:38;;;;;;;30.35;12.27;;;;;;;-1.07;100.00;101300.22;5010410;28;20054;-51
2021/03/05 04:02:07;;;;;;;36.13;12.07;;;;;;;-0.86;100.00;101300.22;5013497;28;20049;-57
2021/03/05 04:04:36;;;;;;;35.58;11.70;;;;;;;-0.83;100.00;101303.88;5011144;28;20054;-50
2021/03/05 04:07:03;;;;;;;27.02;9.98;;;;;;;-1.12;100.00;101305.63;5013955;28;20132;-50
2021/03/05 04:09:31;;;;;;;29.88;10.35;;;;;;;-1.25;100.00;101312.91;5014037;28;20046;-49
2021/03/05 04:11:59;;;;;;;27.75;9.68;;;;;;;-1.32;100.00;101311.53;5028160;28;20424;-49
2021/03/05 04:14:27;;;;;;;27.80;9.75;;;;;;;-1.16;100.00;101314.56;5012160;28;20081;-50
2021/03/05 04:16:55;;;;;;;28.08;10.23;;;;;;;-1.09;100.00;101316.81;5012554;28;20057;-46
2021/03/05 04:19:23;;;;;;;26.25;8.63;;;;;;;-1.20;100.00;101321.72;5010197;28;20042;-46
2021/03/05 04:21:51;;;;;;;24.27;7.88;;;;;;;-1.46;100.00;101322.94;5012703;28;20054;-54
2021/03/05 04:24:19;;;;;;;23.50;7.97;;;;;;;-1.34;100.00;101326.50;5013042;28;20053;-51
2021/03/05 04:26:46;;;;;;;27.90;9.02;;;;;;;-1.16;100.00;101331.25;5011837;28;20050;-51
2021/03/05 04:29:13;;;;;;;27.25;8.23;;;;;;;-1.59;100.00;101326.06;5010741;28;20514;-49
2021/03/05 04:31:39;;;;;;;27.80;8.52;;;;;;;-1.69;100.00;101331.06;5017525;28;20053;-56
2021/03/05 04:34:06;;;;;;;22.90;7.35;;;;;;;-1.72;100.00;101338.31;5015300;28;20054;-55
2021/03/05 04:36:33;;;;;;;25.30;8.88;;;;;;;-1.75;100.00;101338.09;5010547;28;20575;-49
2021/03/05 04:39:04;;;;;;;20.75;7.22;;;;;;;-1.78;100.00;101347.84;5017556;28;20056;-54
2021/03/05 04:41:31;;;;;;;24.30;7.80;;;;;;;-1.70;100.00;101344.38;5010567;28;20568;-51
2021/03/05 04:44:00;;;;;;;25.30;8.10;;;;;;;-1.63;100.00;101349.16;5013677;28;20061;-54
2021/03/05 04:46:27;;;;;;;23.50;7.68;;;;;;;-1.68;100.00;101352.91;5011889;28;20497;-49
2021/03/05 04:48:54;;;;;;;23.40;7.50;;;;;;;-1.78;100.00;101355.38;5012710;28;20041;-55
2021/03/05 04:51:21;;;;;;;20.17;6.85;;;;;;;-1.91;100.00;101360.97;5009657;28;20084;-50
2021/03/05 04:53:48;;;;;;;17.58;7.45;;;;;;;-1.95;100.00;101363.97;5012582;28;20594;-49
2021/03/05 04:56:15;;;;;;;24.20;8.18;;;;;;;-1.84;100.00;101363.28;5010137;28;20045;-55
2021/03/05 04:58:41;;;;;;;24.25;7.60;;;;;;;-1.76;100.00;101373.09;5011910;28;20046;-52
2021/03/05 05:01:08;;;;;;;16.25;6.03;;;;;;;-1.76;100.00;101370.56;5011391;28;20520;-50
2021/03/05 05:03:34;;;;;;;24.02;7.43;;;;;;;-1.53;100.00;101365.88;5010521;28;20069;-53
2021/03/05 05:06:01;;;;;;;19.65;6.95;;;;;;;-1.79;100.00;101378.75;5011981;28;20060;-54
2021/03/05 05:08:27;;;;;;;22.30;7.47;;;;;;;-1.99;100.00;101379.50;5009794;28;20042;-54
2021/03/05 05:10:54;;;;;;;24.15;8.45;;;;;;;-1.94;100.00;101379.91;5012365;28;20400;-46
2021/03/05 05:13:21;;;;;;;19.58;7.22;;;;;;;-1.89;100.00;101393.75;5009804;28;20050;-54
2021/03/05 05:15:48;;;;;;;27.10;6.65;;;;;;;-1.87;100.00;101392.25;5012109;28;20164;-53
2021/03/05 05:18:15;;;;;;;25.38;7.35;;;;;;;-1.96;100.00;101391.47;5013196;28;20050;-49
2021/03/05 05:20:41;;;;;;;21.73;6.75;;;;;;;-2.17;100.00;101400.50;5011235;28;20083;-51
2021/03/05 05:23:08;;;;;;;22.50;7.03;;;;;;;-2.15;100.00;101401.53;5010771;28;20050;-46
2021/03/05 05:25:35;;;;;;;21.00;6.70;;;;;;;-2.28;100.00;101404.56;5010872;28;20049;-49
2021/03/05 05:28:02;;;;;;;21.65;6.35;;;;;;;-2.31;100.00;101396.81;5011516;28;20052;-53
2021/03/05 05:30:29;;;;;;;24.38;6.78;;;;;;;-2.35;100.00;101404.78;5008760;28;20550;-48
2021/03/05 05:32:55;;;;;;;19.70;6.53;;;;;;;-2.44;100.00;101409.88;5015493;28;20452;-47
2021/03/05 05:35:22;;;;;;;19.23;6.90;;;;;;;-2.36;100.00;101415.53;5009867;28;20152;-54
2021/03/05 05:37:50;;;;;;;21.05;6.97;;;;;;;-2.45;100.00;101417.25;5016940;28;20525;-51
2021/03/05 05:40:17;;;;;;;27.13;7.28;;;;;;;-2.41;100.00;101417.66;5012104;28;20050;-48
2021/03/05 05:42:49;;;;;;;23.67;7.05;;;;;;;-2.27;100.00;101430.53;5011647;28;20104;-55
2021/03/05 05:45:16;;;;;;;18.73;6.28;;;;;;;-2.15;100.00;101424.97;5013128;28;20046;-50
2021/03/05 05:47:45;;;;;;;24.65;7.35;;;;;;;-2.32;100.00;101432.63;5021674;28;20057;-47
2021/03/05 05:50:12;;;;;;;20.60;6.40;;;;;;;-2.32;100.00;101436.03;5024724;28;20132;-46
2021/03/05 05:52:44;;;;;;;23.00;7.18;;;;;;;-2.17;100.00;101439.03;5025190;28;20084;-46
2021/03/05 05:55:13;;;;;;;20.48;6.75;;;;;;;-2.39;100.00;101441.25;5028651;28;20056;-55
2021/03/05 05:57:43;;;;;;;21.42;6.93;;;;;;;-2.41;100.00;101451.88;5016603;28;20788;-54
2021/03/05 06:00:10;;;;;;;26.48;7.40;;;;;;;-2.38;100.00;101443.00;5010201;28;20050;-53
2021/03/05 06:02:39;;;;;;;19.55;6.75;;;;;;;-2.29;100.00;101445.47;5009310;28;20049;-53
2021/03/05 06:05:07;;;;;;;30.55;7.72;;;;;;;-2.26;100.00;101453.25;5012787;28;20124;-53
2021/03/05 06:07:34;;;;;;;24.75;7.38;;;;;;;-2.20;100.00;101451.28;5012957;28;20058;-50
2021/03/05 06:10:05;;;;;;;23.60;7.57;;;;;;;-2.35;100.00;101454.97;5012697;28;20660;-47
2021/03/05 06:12:32;;;;;;;24.95;7.43;;;;;;;-2.25;100.00;101461.66;5012303;28;20136;-49
2021/03/05 06:14:59;;;;;;;24.73;8.32;;;;;;;-2.32;100.00;101461.09;5011373;28;20045;-53
2021/03/05 06:17:49;;;;;;;26.85;7.88;;;;;;;-2.40;100.00;101468.72;5008560;28;20140;-54
2021/03/05 06:20:16;;;;;;;30.23;7.78;;;;;;;-2.06;100.00;101465.94;5010717;28;20136;-50
2021/03/05 06:22:43;;;;;;;26.08;7.78;;;;;;;-2.02;100.00;101476.25;5010617;28;20057;-50
2021/03/05 06:25:11;;;;;;;22.73;7.75;;;;;;;-1.77;100.00;101475.13;5010773;28;20045;-50
2021/03/05 06:27:42;;;;;;;29.20;7.68;;;;;;;-2.08;100.00;101479.97;5014332;28;20491;-49
2021/03/05 06:30:10;;;;;;;25.15;8.30;;;;;;;-2.06;100.00;101492.66;5014773;28;20052;-44
2021/03/05 06:32:41;;;;;;;25.95;8.25;;;;;;;-2.01;100.00;101493.94;5033559;28;20460;-48
2021/03/05 06:35:10;;;;;;;30.60;8.60;;;;;;;-1.82;100.00;101489.78;5029528;28;20052;-54
2021/03/05 06:37:47;;;;;;;28.52;8.07;;;;;;;-1.82;100.00;101494.81;5029715;28;20049;-45
2021/03/05 06:40:30;;;;;;;26.05;8.45;;;;;;;-1.76;100.00;101498.59;5026701;28;20033;-54
2021/03/05 06:42:57;;;;;;;33.47;9.00;;;;;;;-1.75;100.00;101508.78;5030010;28;20819;-51
2021/03/05 06:45:36;;;;;;;33.83;10.00;;;;;;;-1.77;100.00;101519.44;5031629;28;20128;-45
2021/03/05 06:48:05;;;;;;;33.17;9.40;;;;;;;-1.55;100.00;101520.56;5030347;28;20135;-51
2021/03/05 06:50:34;;;;;;;31.85;9.65;;;;;;;-1.52;100.00;101515.81;5026202;28;20159;-52
2021/03/05 06:53:01;;;;;;;25.42;9.73;;;;;;;-0.77;100.00;101519.72;5028563;28;20049;-51
2021/03/05 06:55:38;;;;;;;26.63;10.05;;;;;;;-0.90;100.00;101517.81;5030459;28;20477;-57
2021/03/05 06:58:08;;;;;;;29.70;9.63;;;;;;;-1.33;100.00;101525.84;5025610;28;20056;-52
2021/03/05 07:00:35;;;;;;;25.90;9.23;;;;;;;-0.89;100.00;101526.22;5031768;28;20148;-51
2021/03/05 07:03:21;;;;;;;24.17;8.82;;;;;;;-0.46;99.72;101530.72;5028219;28;20041;-47
2021/03/05 07:05:50;;;;;;;28.90;8.63;;;;;;;-0.57;98.05;101533.97;5028120;28;20045;-51
2021/03/05 07:08:42;;;;;;;27.50;9.10;;;;;;;-0.74;97.53;101542.59;5026811;28;20064;-47
2021/03/05 07:11:12;;;;;;;24.40;9.25;;;;;;;-1.12;100.00;101546.88;5025404;28;20465;-46
2021/03/05 07:13:52;;;;;;;24.70;9.25;;;;;;;-0.66;99.89;101548.28;5031076;28;20060;-46
2021/03/05 07:16:19;;;;;;;24.48;8.85;;;;;;;-0.90;99.48;101555.50;5033023;28;20048;-48
2021/03/05 07:18:48;;;;;;;23.83;8.13;;;;;;;-0.72;99.99;101562.88;5033222;28;20103;-54
2021/03/05 07:21:18;;;;;;;21.83;8.73;;;;;;;-0.90;100.00;101559.66;5036985;28;20126;-50
2021/03/05 07:23:47;;;;;;;27.60;9.95;;;;;;;-0.66;99.74;101571.78;5033982;28;20061;-45
2021/03/05 07:26:14;;;;;;;30.17;9.27;;;;;;;-0.72;99.91;101571.28;5037071;28;20060;-51
2021/03/05 07:28:45;;;;;;;23.50;9.07;;;;;;;-0.41;98.92;101579.78;5035812;28;20523;-49
2021/03/05 07:31:16;;;;;;;23.63;7.85;;;;;;;-0.37;97.76;101576.78;5037099;28;20045;-55
2021/03/05 07:33:49;;;;;;;21.42;7.63;;;;;;;-0.38;97.96;101580.00;5036811;28;20061;-48
2021/03/05 07:36:17;;;;;;;19.20;6.68;;;;;;;0.10;95.06;101587.38;5030721;28;20378;-52
2021/03/05 07:38:53;;;;;;;15.70;6.22;;;;;;;0.19;93.66;101583.06;5034469;28;20041;-48
2021/03/05 07:41:24;;;;;;;19.73;5.72;;;;;;;0.05;93.34;101590.22;5034042;28;20042;-44
2021/03/05 07:43:52;;;;;;;15.25;5.53;;;;;;;0.03;94.79;101589.25;5019197;28;20524;-46
2021/03/05 07:46:20;;;;;;;16.98;5.70;;;;;;;0.16;92.99;101592.88;5015605;28;20509;-50
2021/03/05 07:48:51;;;;;;;14.82;5.50;;;;;;;0.30;92.38;101591.50;5015133;28;20520;-55
2021/03/05 07:51:19;;;;;;;15.57;5.15;;;;;;;1.07;89.33;101587.50;5013869;28;20498;-47
2021/03/05 07:53:54;;;;;;;16.60;5.72;;;;;;;0.74;89.07;101596.72;5013957;28;20499;-50
2021/03/05 07:56:39;;;;;;;11.18;4.47;;;;;;;1.18;85.90;101589.22;5013379;28;20077;-44
2021/03/05 07:59:06;;;;;;;10.10;4.43;;;;;;;1.22;85.19;101602.19;5015044;28;20063;-45
2021/03/05 08:01:51;;;;;;;12.77;3.80;;;;;;;1.34;83.81;101604.78;5011664;28;20664;-48
2021/03/05 08:04:18;;;;;;;7.70;4.53;;;;;;;1.65;82.15;101600.41;5017191;28;20498;-47
2021/03/05 08:06:44;;;;;;;9.52;3.33;;;;;;;1.88;81.78;101603.81;5020332;28;20057;-58
2021/03/05 08:09:15;;;;;;;8.32;3.03;;;;;;;2.38;80.20;101594.03;5023542;28;20045;-51
2021/03/05 08:11:42;;;;;;;4.88;2.67;;;;;;;3.03;76.31;101598.75;5013276;28;20056;-47
2021/03/05 08:14:26;;;;;;;4.25;2.60;;;;;;;3.61;71.39;101609.53;5011998;28;20833;-46
2021/03/05 08:16:53;;;;;;;5.82;2.20;;;;;;;5.36;63.69;101614.09;5014007;28;20428;-54
2021/03/05 08:19:20;;;;;;;4.72;2.25;;;;;;;4.83;63.46;101617.59;5011479;28;20054;-47
2021/03/05 08:21:57;;;;;;;6.57;2.30;;;;;;;4.70;64.71;101617.59;5021943;28;20048;-50
2021/03/05 08:24:24;;;;;;;6.78;2.67;;;;;;;3.60;68.91;101615.34;5027481;28;20162;-53
2021/03/05 08:27:05;;;;;;;4.40;2.22;;;;;;;4.12;64.74;101618.00;5027991;28;20059;-50
2021/03/05 08:30:08;;;;;;;5.97;2.30;;;;;;;4.27;62.13;101609.72;5028555;28;20399;-51
2021/03/05 08:32:50;;;;;;;4.55;2.22;;;;;;;5.43;60.44;101620.44;5025199;28;20046;-53
2021/03/05 08:35:30;;;;;;;3.75;1.85;;;;;;;5.29;59.18;101629.75;5028661;28;20045;-49
2021/03/05 08:38:00;;;;;;;3.75;1.90;;;;;;;5.85;59.22;101628.09;5030309;28;20240;-57
2021/03/05 08:40:44;;;;;;;3.17;1.30;;;;;;;5.78;55.49;101622.59;5026529;28;20705;-48
2021/03/05 08:43:11;;;;;;;2.53;0.98;;;;;;;5.50;51.04;101632.72;5028717;28;20056;-52
2021/03/05 08:45:46;;;;;;;1.67;0.60;;;;;;;4.56;53.35;101625.97;5025335;28;20658;-49
2021/03/05 08:48:23;;;;;;;1.75;0.68;;;;;;;5.08;50.33;101632.72;5028184;28;20127;-51
2021/03/05 08:50:51;;;;;;;3.13;0.75;;;;;;;4.59;52.53;101634.66;5025935;28;20386;-51
2021/03/05 08:53:17;;;;;;;2.38;0.93;;;;;;;3.36;56.56;101637.31;5023582;28;20060;-55
2021/03/05 08:55:45;;;;;;;1.90;0.70;;;;;;;4.30;54.98;101635.31;5024515;28;20056;-51
2021/03/05 08:58:16;;;;;;;2.63;0.75;;;;;;;4.18;54.95;101641.22;5027951;28;20067;-49
2021/03/05 09:00:43;;;;;;;7.35;2.20;;;;;;;3.70;58.05;101640.53;5024176;28;20113;-54
2021/03/05 09:03:16;;;;;;;2.88;0.95;;;;;;;3.48;59.09;101644.91;5029837;28;20037;-51
2021/03/05 09:05:46;;;;;;;2.72;1.00;;;;;;;3.89;58.79;101647.75;5023798;28;20050;-46
2021/03/05 09:08:15;;;;;;;1.67;0.60;;;;;;;4.17;57.13;101642.88;5027563;28;20080;-52
2021/03/05 09:10:44;;;;;;;1.48;0.90;;;;;;;3.94;57.56;101655.66;5024000;28;20057;-43
2021/03/05 09:13:17;;;;;;;2.63;1.20;;;;;;;4.12;59.08;101649.28;5028110;28;20052;-43
2021/03/05 09:15:50;;;;;;;1.67;1.00;;;;;;;4.06;59.77;101653.94;5024171;28;20052;-43
2021/03/05 09:18:28;;;;;;;2.50;1.27;;;;;;;4.49;58.66;101660.22;5020565;28;20049;-48
2021/03/05 09:21:01;;;;;;;2.75;0.98;;;;;;;4.08;60.76;101660.88;5020306;28;20041;-47
2021/03/05 09:23:37;;;;;;;4.15;1.20;;;;;;;3.99;61.12;101662.78;5022968;28;20052;-47
2021/03/05 09:26:15;;;;;;;3.65;1.13;;;;;;;4.07;59.72;101670.91;5025579;28;20045;-45
2021/03/05 09:28:44;;;;;;;3.38;1.13;;;;;;;4.36;61.45;101677.91;5023420;28;20061;-50
2021/03/05 09:31:13;;;;;;;1.60;1.20;;;;;;;4.83;58.95;101675.94;5027891;28;20049;-46
2021/03/05 09:33:43;;;;;;;2.63;1.20;;;;;;;5.58;57.71;101685.75;5023070;28;20054;-49
2021/03/05 09:36:14;;;;;;;2.42;1.45;;;;;;;6.24;56.27;101674.53;5028214;28;20046;-50
2021/03/05 09:38:43;;;;;;;3.03;1.33;;;;;;;6.63;56.84;101677.63;5023075;28;20049;-46
2021/03/05 09:41:18;;;;;;;2.05;1.10;;;;;;;6.33;56.58;101681.78;5030353;28;20057;-49
2021/03/05 09:43:56;;;;;;;3.00;1.40;;;;;;;6.06;58.79;101688.69;5026492;28;20582;-50
2021/03/05 09:46:27;;;;;;;2.63;1.30;;;;;;;5.32;60.83;101686.69;5027300;28;20444;-51
2021/03/05 09:48:56;;;;;;;4.13;1.50;;;;;;;5.65;61.02;101694.66;5025789;28;20057;-56
2021/03/05 09:51:24;;;;;;;2.13;1.55;;;;;;;6.26;58.57;101697.50;5028555;28;20061;-55
2021/03/05 09:53:54;;;;;;;3.58;1.58;;;;;;;5.59;60.10;101704.41;5028138;28;20797;-52
2021/03/05 09:56:24;;;;;;;3.83;1.75;;;;;;;5.69;58.42;101700.81;5024601;28;20049;-53
2021/03/05 09:58:59;;;;;;;4.15;1.88;;;;;;;5.57;59.05;101701.78;5024105;28;20057;-49
2021/03/05 10:01:29;;;;;;;2.58;1.27;;;;;;;5.55;58.67;101705.03;5023722;28;20052;-50
2021/03/05 10:04:01;;;;;;;5.13;1.80;;;;;;;5.83;57.21;101705.94;5032733;28;20075;-52
2021/03/05 10:06:30;;;;;;;1.85;1.17;;;;;;;6.31;57.20;101704.63;5036388;28;20049;-49
2021/03/05 10:09:20;;;;;;;8.23;1.63;;;;;;;7.50;54.79;101709.66;5031142;28;20068;-51
2021/03/05 10:11:47;;;;;;;1.60;1.25;;;;;;;7.46;53.01;101707.72;5026046;28;20046;-51
2021/03/05 10:14:29;;;;;;;2.60;1.45;;;;;;;6.63;52.05;101708.16;5037587;28;20048;-50
2021/03/05 10:17:14;;;;;;;2.88;1.35;;;;;;;7.14;52.54;101724.66;5034718;28;20042;-55
2021/03/05 10:19:44;;;;;;;2.20;1.10;;;;;;;7.03;51.02;101724.06;5031050;28;20051;-53
2021/03/05 10:22:13;;;;;;;2.97;1.40;;;;;;;6.98;52.13;101729.66;5034253;28;20057;-53
2021/03/05 10:24:40;;;;;;;1.85;1.23;;;;;;;6.59;51.50;101730.00;5030807;28;20053;-53
2021/03/05 10:27:12;;;;;;;2.25;1.50;;;;;;;6.79;53.43;101726.06;5036001;28;20053;-52
2021/03/05 10:29:49;;;;;;;2.95;1.85;;;;;;;6.12;53.23;101740.78;5031595;28;20765;-53
2021/03/05 10:32:47;;;;;;;5.18;2.03;;;;;;;5.52;56.50;101736.19;5036276;28;20053;-49
2021/03/05 10:35:16;;;;;;;4.03;1.98;;;;;;;6.26;56.38;101749.25;5033191;28;20052;-51
2021/03/05 10:37:44;;;;;;;2.20;1.83;;;;;;;10.48;45.69;101749.81;5029066;28;20060;-53
2021/03/05 10:40:16;;;;;;;4.63;2.40;;;;;;;11.38;42.69;101752.66;5035294;28;20049;-49
2021/03/05 10:42:43;;;;;;;4.85;2.53;;;;;;;15.05;34.40;101756.78;5028004;28;20054;-51
2021/03/05 10:45:10;;;;;;;2.97;1.83;;;;;;;13.94;34.98;101767.50;5033849;28;20429;-52
2021/03/05 10:47:37;;;;;;;3.30;1.58;;;;;;;14.68;34.30;101762.72;5029727;28;20052;-53
2021/03/05 10:50:04;;;;;;;2.47;1.90;;;;;;;12.08;38.87;101764.78;5035732;28;20073;-51
2021/03/05 10:52:30;;;;;;;2.38;1.40;;;;;;;11.56;37.89;101778.16;5036514;28;20051;-56
2021/03/05 10:54:57;;;;;;;3.13;1.30;;;;;;;11.69;36.70;101780.38;5034882;28;20045;-54
2021/03/05 10:57:24;;;;;;;2.85;1.60;;;;;;;12.62;36.51;101773.56;5036202;28;20053;-50
2021/03/05 10:59:50;;;;;;;2.20;1.30;;;;;;;15.24;32.30;101776.16;5035763;28;20122;-51
2021/03/05 11:02:18;;;;;;;4.10;1.38;;;;;;;15.16;29.35;101775.09;5033862;28;20044;-59
2021/03/05 11:04:46;;;;;;;3.00;1.30;;;;;;;17.14;28.58;101780.03;5032706;28;20045;-52
2021/03/05 11:07:12;;;;;;;2.55;1.38;;;;;;;18.88;27.13;101787.50;5034433;28;20059;-57
2021/03/05 11:09:39;;;;;;;2.85;1.70;;;;;;;18.08;26.91;101793.53;5034114;28;20128;-58
2021/03/05 11:12:06;;;;;;;2.95;1.60;;;;;;;18.90;24.35;101785.78;5035434;28;20045;-58
2021/03/05 11:14:33;;;;;;;1.70;1.10;;;;;;;18.88;24.84;101784.91;5034190;28;20509;-53
2021/03/05 11:16:59;;;;;;;1.13;1.02;;;;;;;18.09;25.78;101787.47;5036293;28;20131;-51
2021/03/05 11:19:27;;;;;;;1.85;0.90;;;;;;;19.48;24.50;101793.16;5037815;28;20053;-57
2021/03/05 11:21:54;;;;;;;1.23;0.85;;;;;;;19.97;21.81;101794.34;5038856;28;20605;-58
2021/03/05 11:24:20;;;;;;;3.15;1.40;;;;;;;18.51;23.35;101788.81;5038289;28;20065;-58
2021/03/05 11:26:48;;;;;;;3.80;1.30;;;;;;;17.50;26.60;101785.78;5034267;28;20856;-56
2021/03/05 11:29:15;;;;;;;1.30;1.10;;;;;;;19.31;23.88;101788.69;5037455;28;20202;-55
2021/03/05 11:31:42;;;;;;;1.23;0.98;;;;;;;18.49;23.73;101788.81;5032573;28;20068;-55
2021/03/05 11:34:09;;;;;;;2.45;1.85;;;;;;;18.26;24.03;101790.28;5036345;28;20041;-55